Terminal Aerodrome Forecast
Issued by NWS

Current Version | Previous Version | Graphics & Text | Print | Product List | Glossary On
Versions: 1 2 3 4 5 6 7 8 9 10 11 12 13 14 15 16
000
FTUS41 KPBZ 172320
TAFMGW
TAF
KMGW 172320Z 1800/1824 19005KT P6SM VCSH SCT040
     FM180200 21007KT 5SM -TSRA BR BKN040CB
      TEMPO 1802/1804 21010G20KT 3SM TSRA OVC035CB
     FM180800 19005KT 6SM -SHRA BR BKN020
     FM181700 23008KT P6SM VCSH BKN035
     FM181900 24009KT P6SM SCT040=

USA.gov is the U.S. government's official web portal to all federal, state and local government web resources and services.